sensor_id;sensor_type;location;lat;lon;timestamp;P1;durP1;ratioP1;P2;durP2;ratioP2
40555;SDS011;26250;45.422;11.100;2023-04-19T10:22:55;7.85;;;6.68;;
40555;SDS011;26250;45.422;11.100;2023-04-19T10:25:29;10.32;;;7.43;;
40555;SDS011;26250;45.422;11.100;2023-04-19T10:27:56;7.55;;;6.10;;
40555;SDS011;26250;45.422;11.100;2023-04-19T10:30:24;6.53;;;5.93;;
40555;SDS011;26250;45.422;11.100;2023-04-19T10:32:55;6.53;;;5.90;;
40555;SDS011;26250;45.422;11.100;2023-04-19T10:35:24;6.00;;;5.47;;
40555;SDS011;26250;45.422;11.100;2023-04-19T10:38:08;5.97;;;5.35;;
40555;SDS011;26250;45.422;11.100;2023-04-19T10:43:18;14.75;;;6.10;;
40555;SDS011;26250;45.422;11.100;2023-04-19T10:45:45;7.70;;;6.90;;
40555;SDS011;26250;45.422;11.100;2023-04-19T10:51:13;6.05;;;5.20;;
40555;SDS011;26250;45.422;11.100;2023-04-19T10:53:45;12.98;;;5.57;;
40555;SDS011;26250;45.422;11.100;2023-04-19T10:56:18;8.07;;;5.47;;
40555;SDS011;26250;45.422;11.100;2023-04-19T11:01:42;8.00;;;5.25;;
40555;SDS011;26250;45.422;11.100;2023-04-19T11:04:11;6.15;;;5.55;;
40555;SDS011;26250;45.422;11.100;2023-04-19T11:12:05;6.93;;;6.32;;
40555;SDS011;26250;45.422;11.100;2023-04-19T11:14:35;9.60;;;7.18;;
40555;SDS011;26250;45.422;11.100;2023-04-19T11:19:52;4.60;;;4.20;;
40555;SDS011;26250;45.422;11.100;2023-04-19T11:27:35;7.75;;;4.60;;
40555;SDS011;26250;45.422;11.100;2023-04-19T11:30:04;7.88;;;5.18;;
40555;SDS011;26250;45.422;11.100;2023-04-19T11:32:34;6.15;;;5.55;;
40555;SDS011;26250;45.422;11.100;2023-04-19T11:35:10;7.50;;;4.90;;
40555;SDS011;26250;45.422;11.100;2023-04-19T11:37:38;5.88;;;5.28;;
40555;SDS011;26250;45.422;11.100;2023-04-19T11:40:05;5.25;;;4.85;;
40555;SDS011;26250;45.422;11.100;2023-04-19T11:42:34;5.35;;;4.85;;
40555;SDS011;26250;45.422;11.100;2023-04-19T11:45:01;6.70;;;6.00;;
40555;SDS011;26250;45.422;11.100;2023-04-19T11:47:28;7.88;;;6.00;;
40555;SDS011;26250;45.422;11.100;2023-04-19T11:49:56;7.03;;;5.43;;
40555;SDS011;26250;45.422;11.100;2023-04-19T11:52:24;13.20;;;7.00;;
40555;SDS011;26250;45.422;11.100;2023-04-19T11:54:51;7.75;;;4.72;;
40555;SDS011;26250;45.422;11.100;2023-04-19T11:57:28;5.72;;;4.38;;
40555;SDS011;26250;45.422;11.100;2023-04-19T12:00:03;11.10;;;5.80;;
40555;SDS011;26250;45.422;11.100;2023-04-19T12:02:39;6.65;;;5.38;;
40555;SDS011;26250;45.422;11.100;2023-04-19T12:05:09;11.40;;;5.53;;
40555;SDS011;26250;45.422;11.100;2023-04-19T12:07:56;7.55;;;5.35;;
40555;SDS011;26250;45.422;11.100;2023-04-19T12:10:53;11.98;;;4.85;;
40555;SDS011;26250;45.422;11.100;2023-04-19T12:13:21;6.40;;;4.97;;
40555;SDS011;26250;45.422;11.100;2023-04-19T12:15:52;4.95;;;4.40;;
40555;SDS011;26250;45.422;11.100;2023-04-19T12:18:19;10.27;;;4.32;;
40555;SDS011;26250;45.422;11.100;2023-04-19T12:20:47;4.63;;;4.05;;
40555;SDS011;26250;45.422;11.100;2023-04-19T12:23:17;5.38;;;4.40;;
40555;SDS011;26250;45.422;11.100;2023-04-19T12:25:45;5.13;;;4.65;;
40555;SDS011;26250;45.422;11.100;2023-04-19T12:28:13;5.22;;;4.72;;
40555;SDS011;26250;45.422;11.100;2023-04-19T12:30:42;5.78;;;5.18;;
40555;SDS011;26250;45.422;11.100;2023-04-19T12:33:09;6.70;;;4.68;;
40555;SDS011;26250;45.422;11.100;2023-04-19T12:35:36;5.90;;;5.03;;
40555;SDS011;26250;45.422;11.100;2023-04-19T12:38:04;4.78;;;4.00;;
40555;SDS011;26250;45.422;11.100;2023-04-19T12:40:31;4.60;;;3.78;;
40555;SDS011;26250;45.422;11.100;2023-04-19T12:42:58;6.85;;;3.85;;
40555;SDS011;26250;45.422;11.100;2023-04-19T12:45:25;5.60;;;3.92;;
40555;SDS011;26250;45.422;11.100;2023-04-19T12:47:53;7.40;;;3.30;;
40555;SDS011;26250;45.422;11.100;2023-04-19T12:50:19;3.08;;;2.85;;
40555;SDS011;26250;45.422;11.100;2023-04-19T12:52:46;6.90;;;3.55;;
40555;SDS011;26250;45.422;11.100;2023-04-19T12:55:13;4.18;;;3.58;;
40555;SDS011;26250;45.422;11.100;2023-04-19T12:57:41;6.57;;;3.88;;
40555;SDS011;26250;45.422;11.100;2023-04-19T13:00:08;3.70;;;3.40;;
40555;SDS011;26250;45.422;11.100;2023-04-19T13:02:36;4.93;;;4.38;;
40555;SDS011;26250;45.422;11.100;2023-04-19T13:05:04;10.63;;;4.18;;
40555;SDS011;26250;45.422;11.100;2023-04-19T13:07:31;4.55;;;3.47;;
40555;SDS011;26250;45.422;11.100;2023-04-19T13:09:58;4.75;;;4.18;;
40555;SDS011;26250;45.422;11.100;2023-04-19T13:12:25;4.40;;;4.00;;
40555;SDS011;26250;45.422;11.100;2023-04-19T13:14:53;4.68;;;3.90;;
40555;SDS011;26250;45.422;11.100;2023-04-19T13:17:20;4.53;;;4.05;;
40555;SDS011;26250;45.422;11.100;2023-04-19T13:19:47;4.38;;;3.83;;
40555;SDS011;26250;45.422;11.100;2023-04-19T13:22:14;4.15;;;3.75;;
40555;SDS011;26250;45.422;11.100;2023-04-19T13:24:41;6.38;;;3.50;;
40555;SDS011;26250;45.422;11.100;2023-04-19T13:27:07;3.65;;;3.03;;
40555;SDS011;26250;45.422;11.100;2023-04-19T13:29:35;9.63;;;3.78;;
40555;SDS011;26250;45.422;11.100;2023-04-19T13:32:02;5.10;;;3.70;;
40555;SDS011;26250;45.422;11.100;2023-04-19T13:34:33;3.88;;;3.38;;
40555;SDS011;26250;45.422;11.100;2023-04-19T13:37:00;5.75;;;3.20;;
40555;SDS011;26250;45.422;11.100;2023-04-19T13:39:27;12.63;;;5.88;;
40555;SDS011;26250;45.422;11.100;2023-04-19T13:41:54;8.55;;;6.68;;
40555;SDS011;26250;45.422;11.100;2023-04-19T13:44:21;8.23;;;6.60;;
40555;SDS011;26250;45.422;11.100;2023-04-19T13:46:48;7.55;;;6.22;;
40555;SDS011;26250;45.422;11.100;2023-04-19T13:49:16;6.47;;;5.88;;
40555;SDS011;26250;45.422;11.100;2023-04-19T13:51:43;11.48;;;6.18;;
40555;SDS011;26250;45.422;11.100;2023-04-19T13:54:16;12.93;;;5.82;;
40555;SDS011;26250;45.422;11.100;2023-04-19T13:56:45;7.63;;;6.82;;
40555;SDS011;26250;45.422;11.100;2023-04-19T13:59:15;7.32;;;6.35;;
40555;SDS011;26250;45.422;11.100;2023-04-19T14:01:42;7.25;;;5.57;;
40555;SDS011;26250;45.422;11.100;2023-04-19T14:04:08;12.70;;;6.32;;
40555;SDS011;26250;45.422;11.100;2023-04-19T14:06:36;6.07;;;5.50;;
40555;SDS011;26250;45.422;11.100;2023-04-19T14:09:03;6.65;;;5.40;;
40555;SDS011;26250;45.422;11.100;2023-04-19T14:11:29;6.72;;;5.95;;
40555;SDS011;26250;45.422;11.100;2023-04-19T14:13:56;7.20;;;5.22;;
40555;SDS011;26250;45.422;11.100;2023-04-19T14:16:23;7.75;;;5.75;;
40555;SDS011;26250;45.422;11.100;2023-04-19T14:18:50;7.10;;;5.80;;
40555;SDS011;26250;45.422;11.100;2023-04-19T14:21:18;7.10;;;5.57;;
40555;SDS011;26250;45.422;11.100;2023-04-19T14:23:45;6.13;;;5.28;;
40555;SDS011;26250;45.422;11.100;2023-04-19T14:26:12;11.55;;;5.97;;
40555;SDS011;26250;45.422;11.100;2023-04-19T14:28:39;5.80;;;4.15;;
40555;SDS011;26250;45.422;11.100;2023-04-19T14:31:06;6.72;;;5.20;;
40555;SDS011;26250;45.422;11.100;2023-04-19T14:33:33;4.10;;;3.80;;
40555;SDS011;26250;45.422;11.100;2023-04-19T14:36:03;3.65;;;3.35;;
40555;SDS011;26250;45.422;11.100;2023-04-19T14:38:30;3.65;;;3.25;;
40555;SDS011;26250;45.422;11.100;2023-04-19T14:40:57;3.97;;;3.58;;
40555;SDS011;26250;45.422;11.100;2023-04-19T14:43:24;3.15;;;2.95;;
40555;SDS011;26250;45.422;11.100;2023-04-19T14:45:51;4.20;;;3.78;;
40555;SDS011;26250;45.422;11.100;2023-04-19T14:48:18;5.15;;;3.45;;
40555;SDS011;26250;45.422;11.100;2023-04-19T14:50:47;6.25;;;3.97;;
40555;SDS011;26250;45.422;11.100;2023-04-19T14:53:14;6.18;;;3.50;;
40555;SDS011;26250;45.422;11.100;2023-04-19T14:55:41;4.45;;;3.45;;
40555;SDS011;26250;45.422;11.100;2023-04-19T14:58:08;6.72;;;3.42;;
40555;SDS011;26250;45.422;11.100;2023-04-19T15:00:35;4.97;;;4.10;;
40555;SDS011;26250;45.422;11.100;2023-04-19T15:03:02;6.85;;;4.90;;
40555;SDS011;26250;45.422;11.100;2023-04-19T15:05:29;4.70;;;3.42;;
40555;SDS011;26250;45.422;11.100;2023-04-19T15:07:59;6.35;;;4.05;;
40555;SDS011;26250;45.422;11.100;2023-04-19T15:10:26;4.25;;;3.25;;
40555;SDS011;26250;45.422;11.100;2023-04-19T15:12:53;2.13;;;2.03;;
40555;SDS011;26250;45.422;11.100;2023-04-19T15:15:20;2.75;;;2.47;;
40555;SDS011;26250;45.422;11.100;2023-04-19T15:17:47;4.07;;;2.33;;
40555;SDS011;26250;45.422;11.100;2023-04-19T15:20:14;2.15;;;1.95;;
40555;SDS011;26250;45.422;11.100;2023-04-19T15:22:41;2.90;;;2.60;;
40555;SDS011;26250;45.422;11.100;2023-04-19T15:25:08;10.00;;;2.53;;
40555;SDS011;26250;45.422;11.100;2023-04-19T15:27:35;3.50;;;2.55;;
40555;SDS011;26250;45.422;11.100;2023-04-19T15:30:02;3.53;;;2.47;;
40555;SDS011;26250;45.422;11.100;2023-04-19T15:32:29;2.70;;;2.08;;
40555;SDS011;26250;45.422;11.100;2023-04-19T15:34:59;1.63;;;1.52;;
40555;SDS011;26250;45.422;11.100;2023-04-19T15:37:26;3.97;;;2.08;;
40555;SDS011;26250;45.422;11.100;2023-04-19T15:39:53;5.15;;;3.10;;
40555;SDS011;26250;45.422;11.100;2023-04-19T15:42:20;2.10;;;1.90;;
40555;SDS011;26250;45.422;11.100;2023-04-19T15:44:47;2.60;;;2.08;;
40555;SDS011;26250;45.422;11.100;2023-04-19T15:47:16;2.55;;;2.20;;
40555;SDS011;26250;45.422;11.100;2023-04-19T15:49:43;2.72;;;2.40;;
40555;SDS011;26250;45.422;11.100;2023-04-19T15:52:13;2.53;;;2.28;;
40555;SDS011;26250;45.422;11.100;2023-04-19T15:54:40;11.77;;;3.17;;
40555;SDS011;26250;45.422;11.100;2023-04-19T15:57:07;3.00;;;2.80;;
40555;SDS011;26250;45.422;11.100;2023-04-19T15:59:33;4.38;;;2.58;;
40555;SDS011;26250;45.422;11.100;2023-04-19T16:02:00;2.92;;;2.72;;
40555;SDS011;26250;45.422;11.100;2023-04-19T16:04:27;2.75;;;2.55;;
40555;SDS011;26250;45.422;11.100;2023-04-19T16:06:55;3.42;;;3.13;;
40555;SDS011;26250;45.422;11.100;2023-04-19T16:09:22;4.40;;;3.95;;
40555;SDS011;26250;45.422;11.100;2023-04-19T16:11:49;8.25;;;3.92;;
40555;SDS011;26250;45.422;11.100;2023-04-19T16:14:16;4.90;;;4.15;;
40555;SDS011;26250;45.422;11.100;2023-04-19T16:16:43;5.10;;;4.43;;
40555;SDS011;26250;45.422;11.100;2023-04-19T16:19:10;7.22;;;5.47;;
40555;SDS011;26250;45.422;11.100;2023-04-19T16:21:37;7.30;;;5.22;;
40555;SDS011;26250;45.422;11.100;2023-04-19T16:24:04;6.38;;;5.63;;
40555;SDS011;26250;45.422;11.100;2023-04-19T16:26:32;5.72;;;4.82;;
40555;SDS011;26250;45.422;11.100;2023-04-19T16:28:59;6.22;;;5.45;;
40555;SDS011;26250;45.422;11.100;2023-04-19T16:31:26;7.18;;;5.10;;
40555;SDS011;26250;45.422;11.100;2023-04-19T16:33:53;5.35;;;4.88;;
40555;SDS011;26250;45.422;11.100;2023-04-19T16:36:20;4.82;;;4.40;;
40555;SDS011;26250;45.422;11.100;2023-04-19T16:38:46;7.32;;;4.82;;
40555;SDS011;26250;45.422;11.100;2023-04-19T16:41:13;5.28;;;4.88;;
40555;SDS011;26250;45.422;11.100;2023-04-19T16:43:40;4.93;;;4.53;;
40555;SDS011;26250;45.422;11.100;2023-04-19T16:46:07;6.90;;;4.18;;
40555;SDS011;26250;45.422;11.100;2023-04-19T16:48:34;4.25;;;3.88;;
40555;SDS011;26250;45.422;11.100;2023-04-19T16:51:01;10.63;;;4.75;;
40555;SDS011;26250;45.422;11.100;2023-04-19T16:53:29;26.88;;;6.55;;
40555;SDS011;26250;45.422;11.100;2023-04-19T16:55:57;7.20;;;5.45;;
40555;SDS011;26250;45.422;11.100;2023-04-19T16:58:25;5.10;;;4.70;;
40555;SDS011;26250;45.422;11.100;2023-04-19T17:00:52;5.03;;;4.38;;
40555;SDS011;26250;45.422;11.100;2023-04-19T17:03:19;7.03;;;5.03;;
40555;SDS011;26250;45.422;11.100;2023-04-19T17:05:46;5.63;;;5.22;;
40555;SDS011;26250;45.422;11.100;2023-04-19T17:08:12;6.05;;;5.45;;
40555;SDS011;26250;45.422;11.100;2023-04-19T17:10:39;11.60;;;6.00;;
40555;SDS011;26250;45.422;11.100;2023-04-19T17:13:06;5.00;;;4.55;;
40555;SDS011;26250;45.422;11.100;2023-04-19T17:15:33;11.73;;;5.15;;
40555;SDS011;26250;45.422;11.100;2023-04-19T17:18:02;4.80;;;4.40;;
40555;SDS011;26250;45.422;11.100;2023-04-19T17:20:29;5.68;;;4.50;;
40555;SDS011;26250;45.422;11.100;2023-04-19T17:22:56;6.22;;;5.65;;
40555;SDS011;26250;45.422;11.100;2023-04-19T17:25:23;9.70;;;5.97;;
40555;SDS011;26250;45.422;11.100;2023-04-19T17:27:50;9.20;;;8.30;;
40555;SDS011;26250;45.422;11.100;2023-04-19T17:30:17;7.50;;;6.80;;
40555;SDS011;26250;45.422;11.100;2023-04-19T17:32:44;10.98;;;7.43;;
40555;SDS011;26250;45.422;11.100;2023-04-19T17:35:11;8.40;;;7.50;;
40555;SDS011;26250;45.422;11.100;2023-04-19T17:37:38;9.38;;;7.43;;
40555;SDS011;26250;45.422;11.100;2023-04-19T17:40:05;12.00;;;8.43;;
40555;SDS011;26250;45.422;11.100;2023-04-19T17:42:32;9.23;;;8.18;;
40555;SDS011;26250;45.422;11.100;2023-04-19T17:44:59;10.02;;;8.10;;
40555;SDS011;26250;45.422;11.100;2023-04-19T17:47:26;7.97;;;6.60;;
40555;SDS011;26250;45.422;11.100;2023-04-19T17:50:02;10.30;;;4.85;;
40555;SDS011;26250;45.422;11.100;2023-04-19T17:52:30;3.72;;;3.47;;
40555;SDS011;26250;45.422;11.100;2023-04-19T17:54:57;4.03;;;3.33;;
40555;SDS011;26250;45.422;11.100;2023-04-19T17:57:24;5.15;;;4.10;;
40555;SDS011;26250;45.422;11.100;2023-04-19T17:59:53;4.28;;;3.78;;
40555;SDS011;26250;45.422;11.100;2023-04-19T18:02:21;4.15;;;3.80;;
40555;SDS011;26250;45.422;11.100;2023-04-19T18:04:49;3.58;;;3.28;;
40555;SDS011;26250;45.422;11.100;2023-04-19T18:07:16;9.50;;;4.65;;
40555;SDS011;26250;45.422;11.100;2023-04-19T18:09:43;5.32;;;3.83;;
40555;SDS011;26250;45.422;11.100;2023-04-19T18:12:09;5.00;;;4.13;;
40555;SDS011;26250;45.422;11.100;2023-04-19T18:14:36;5.28;;;3.80;;
40555;SDS011;26250;45.422;11.100;2023-04-19T18:17:03;4.47;;;4.10;;
40555;SDS011;26250;45.422;11.100;2023-04-19T18:19:31;4.00;;;3.60;;
40555;SDS011;26250;45.422;11.100;2023-04-19T18:21:58;5.72;;;3.78;;
40555;SDS011;26250;45.422;11.100;2023-04-19T18:24:26;5.72;;;3.92;;
40555;SDS011;26250;45.422;11.100;2023-04-19T18:26:53;5.18;;;3.58;;
40555;SDS011;26250;45.422;11.100;2023-04-19T18:29:20;5.47;;;4.30;;
40555;SDS011;26250;45.422;11.100;2023-04-19T18:31:49;5.60;;;4.10;;
40555;SDS011;26250;45.422;11.100;2023-04-19T18:34:18;5.97;;;3.90;;
40555;SDS011;26250;45.422;11.100;2023-04-19T18:36:45;4.68;;;4.28;;
40555;SDS011;26250;45.422;11.100;2023-04-19T18:39:11;4.57;;;4.18;;
40555;SDS011;26250;45.422;11.100;2023-04-19T18:41:39;6.40;;;4.80;;
40555;SDS011;26250;45.422;11.100;2023-04-19T18:44:06;6.20;;;4.65;;
40555;SDS011;26250;45.422;11.100;2023-04-19T18:46:53;4.75;;;4.35;;
40555;SDS011;26250;45.422;11.100;2023-04-19T18:49:19;4.88;;;4.40;;
40555;SDS011;26250;45.422;11.100;2023-04-19T18:51:47;6.20;;;5.60;;
40555;SDS011;26250;45.422;11.100;2023-04-19T18:54:15;6.13;;;4.68;;
40555;SDS011;26250;45.422;11.100;2023-04-19T18:56:44;5.68;;;4.50;;
40555;SDS011;26250;45.422;11.100;2023-04-19T18:59:14;5.45;;;4.82;;
40555;SDS011;26250;45.422;11.100;2023-04-19T19:01:42;6.78;;;4.38;;
40555;SDS011;26250;45.422;11.100;2023-04-19T19:04:15;4.82;;;4.40;;
40555;SDS011;26250;45.422;11.100;2023-04-19T19:07:05;6.97;;;4.22;;
40555;SDS011;26250;45.422;11.100;2023-04-19T19:09:51;5.55;;;4.93;;
40555;SDS011;26250;45.422;11.100;2023-04-19T19:12:21;5.55;;;4.95;;
40555;SDS011;26250;45.422;11.100;2023-04-19T19:14:49;5.28;;;4.78;;
40555;SDS011;26250;45.422;11.100;2023-04-19T19:17:16;5.40;;;4.35;;
40555;SDS011;26250;45.422;11.100;2023-04-19T19:19:46;4.05;;;3.75;;
40555;SDS011;26250;45.422;11.100;2023-04-19T19:22:13;5.32;;;4.70;;
40555;SDS011;26250;45.422;11.100;2023-04-19T19:24:53;4.30;;;4.00;;
40555;SDS011;26250;45.422;11.100;2023-04-19T19:27:27;4.85;;;4.45;;
40555;SDS011;26250;45.422;11.100;2023-04-19T19:29:55;4.95;;;4.50;;
40555;SDS011;26250;45.422;11.100;2023-04-19T19:32:29;5.43;;;4.22;;
40555;SDS011;26250;45.422;11.100;2023-04-19T19:34:59;4.45;;;4.03;;
40555;SDS011;26250;45.422;11.100;2023-04-19T19:37:35;4.13;;;3.83;;
40555;SDS011;26250;45.422;11.100;2023-04-19T19:40:05;5.65;;;5.00;;
40555;SDS011;26250;45.422;11.100;2023-04-19T19:42:36;4.30;;;4.00;;
40555;SDS011;26250;45.422;11.100;2023-04-19T19:45:07;4.32;;;3.97;;
40555;SDS011;26250;45.422;11.100;2023-04-19T19:47:34;3.33;;;3.03;;
40555;SDS011;26250;45.422;11.100;2023-04-19T19:50:11;2.92;;;2.65;;
40555;SDS011;26250;45.422;11.100;2023-04-19T19:52:59;2.65;;;2.45;;
40555;SDS011;26250;45.422;11.100;2023-04-19T19:55:26;3.20;;;3.00;;
40555;SDS011;26250;45.422;11.100;2023-04-19T19:57:56;3.47;;;3.17;;
40555;SDS011;26250;45.422;11.100;2023-04-19T20:00:27;3.80;;;3.40;;
40555;SDS011;26250;45.422;11.100;2023-04-19T20:03:11;4.43;;;4.03;;
40555;SDS011;26250;45.422;11.100;2023-04-19T20:05:39;3.85;;;3.55;;
40555;SDS011;26250;45.422;11.100;2023-04-19T20:08:08;4.45;;;3.40;;
40555;SDS011;26250;45.422;11.100;2023-04-19T20:10:38;3.45;;;3.15;;
40555;SDS011;26250;45.422;11.100;2023-04-19T20:13:07;3.88;;;3.58;;
40555;SDS011;26250;45.422;11.100;2023-04-19T20:15:34;3.88;;;3.58;;
40555;SDS011;26250;45.422;11.100;2023-04-19T20:18:03;4.50;;;4.07;;
40555;SDS011;26250;45.422;11.100;2023-04-19T20:20:34;3.55;;;3.35;;
40555;SDS011;26250;45.422;11.100;2023-04-19T20:23:02;3.63;;;3.42;;
40555;SDS011;26250;45.422;11.100;2023-04-19T20:25:29;3.55;;;3.25;;
40555;SDS011;26250;45.422;11.100;2023-04-19T20:27:58;4.70;;;4.30;;
40555;SDS011;26250;45.422;11.100;2023-04-19T20:30:27;4.88;;;4.47;;
40555;SDS011;26250;45.422;11.100;2023-04-19T20:32:55;4.30;;;4.00;;
40555;SDS011;26250;45.422;11.100;2023-04-19T20:35:22;3.92;;;3.55;;
40555;SDS011;26250;45.422;11.100;2023-04-19T20:37:49;4.78;;;4.18;;
40555;SDS011;26250;45.422;11.100;2023-04-19T20:40:17;3.70;;;3.47;;
40555;SDS011;26250;45.422;11.100;2023-04-19T20:42:46;4.10;;;3.80;;
40555;SDS011;26250;45.422;11.100;2023-04-19T20:45:13;4.25;;;3.55;;
40555;SDS011;26250;45.422;11.100;2023-04-19T20:47:41;4.15;;;3.75;;
40555;SDS011;26250;45.422;11.100;2023-04-19T20:50:08;4.68;;;3.90;;
40555;SDS011;26250;45.422;11.100;2023-04-19T20:52:36;5.97;;;4.07;;
40555;SDS011;26250;45.422;11.100;2023-04-19T20:55:03;4.75;;;4.32;;
40555;SDS011;26250;45.422;11.100;2023-04-19T20:57:34;4.88;;;4.20;;
40555;SDS011;26250;45.422;11.100;2023-04-19T21:00:01;4.25;;;3.97;;
40555;SDS011;26250;45.422;11.100;2023-04-19T21:02:31;3.60;;;3.30;;
40555;SDS011;26250;45.422;11.100;2023-04-19T21:05:00;5.75;;;4.40;;
40555;SDS011;26250;45.422;11.100;2023-04-19T21:07:27;6.40;;;5.22;;
40555;SDS011;26250;45.422;11.100;2023-04-19T21:09:56;12.93;;;7.20;;
40555;SDS011;26250;45.422;11.100;2023-04-19T21:12:28;8.73;;;7.60;;
40555;SDS011;26250;45.422;11.100;2023-04-19T21:14:56;12.18;;;10.13;;
40555;SDS011;26250;45.422;11.100;2023-04-19T21:17:23;8.05;;;6.05;;
40555;SDS011;26250;45.422;11.100;2023-04-19T21:19:51;7.65;;;4.63;;
40555;SDS011;26250;45.422;11.100;2023-04-19T21:22:19;4.75;;;4.38;;
40555;SDS011;26250;45.422;11.100;2023-04-19T21:24:49;4.88;;;4.30;;
40555;SDS011;26250;45.422;11.100;2023-04-19T21:27:16;4.30;;;4.00;;
40555;SDS011;26250;45.422;11.100;2023-04-19T21:29:43;6.65;;;5.25;;
40555;SDS011;26250;45.422;11.100;2023-04-19T21:32:09;12.00;;;7.50;;
40555;SDS011;26250;45.422;11.100;2023-04-19T21:34:36;11.32;;;8.80;;
40555;SDS011;26250;45.422;11.100;2023-04-19T21:37:03;11.13;;;9.25;;
40555;SDS011;26250;45.422;11.100;2023-04-19T21:39:30;7.97;;;7.18;;
40555;SDS011;26250;45.422;11.100;2023-04-19T21:41:59;10.02;;;7.28;;
40555;SDS011;26250;45.422;11.100;2023-04-19T21:44:26;8.02;;;7.25;;
40555;SDS011;26250;45.422;11.100;2023-04-19T21:46:53;7.32;;;6.63;;
40555;SDS011;26250;45.422;11.100;2023-04-19T21:49:20;5.90;;;5.30;;
40555;SDS011;26250;45.422;11.100;2023-04-19T21:51:47;7.65;;;6.75;;
40555;SDS011;26250;45.422;11.100;2023-04-19T21:54:14;7.30;;;6.53;;
40555;SDS011;26250;45.422;11.100;2023-04-19T21:56:56;7.07;;;6.43;;
40555;SDS011;26250;45.422;11.100;2023-04-19T21:59:23;6.85;;;5.78;;
40555;SDS011;26250;45.422;11.100;2023-04-19T22:01:50;8.90;;;5.20;;
40555;SDS011;26250;45.422;11.100;2023-04-19T22:04:19;6.57;;;5.95;;
40555;SDS011;26250;45.422;11.100;2023-04-19T22:06:46;6.03;;;5.60;;
40555;SDS011;26250;45.422;11.100;2023-04-19T22:09:12;8.52;;;6.70;;
40555;SDS011;26250;45.422;11.100;2023-04-19T22:11:40;6.85;;;6.15;;
40555;SDS011;26250;45.422;11.100;2023-04-19T22:14:07;7.15;;;6.55;;
40555;SDS011;26250;45.422;11.100;2023-04-19T22:16:34;6.43;;;5.93;;
40555;SDS011;26250;45.422;11.100;2023-04-19T22:19:01;6.35;;;5.85;;
40555;SDS011;26250;45.422;11.100;2023-04-19T22:21:28;7.25;;;6.65;;
40555;SDS011;26250;45.422;11.100;2023-04-19T22:23:56;7.45;;;6.95;;
40555;SDS011;26250;45.422;11.100;2023-04-19T22:26:22;6.60;;;6.10;;
40555;SDS011;26250;45.422;11.100;2023-04-19T22:28:52;6.88;;;6.25;;
40555;SDS011;26250;45.422;11.100;2023-04-19T22:31:19;7.57;;;6.90;;
40555;SDS011;26250;45.422;11.100;2023-04-19T22:33:48;7.57;;;6.93;;
40555;SDS011;26250;45.422;11.100;2023-04-19T22:36:15;7.80;;;7.07;;
40555;SDS011;26250;45.422;11.100;2023-04-19T22:38:42;10.75;;;7.35;;
40555;SDS011;26250;45.422;11.100;2023-04-19T22:41:09;7.28;;;6.68;;
40555;SDS011;26250;45.422;11.100;2023-04-19T22:43:35;8.65;;;7.35;;
40555;SDS011;26250;45.422;11.100;2023-04-19T22:46:03;7.55;;;6.82;;
40555;SDS011;26250;45.422;11.100;2023-04-19T22:48:30;8.10;;;7.30;;
40555;SDS011;26250;45.422;11.100;2023-04-19T22:50:58;9.82;;;8.27;;
40555;SDS011;26250;45.422;11.100;2023-04-19T22:53:25;10.68;;;8.75;;
40555;SDS011;26250;45.422;11.100;2023-04-19T22:55:52;8.75;;;8.02;;
40555;SDS011;26250;45.422;11.100;2023-04-19T22:58:19;10.20;;;8.43;;
40555;SDS011;26250;45.422;11.100;2023-04-19T23:00:46;9.43;;;8.52;;
40555;SDS011;26250;45.422;11.100;2023-04-19T23:03:13;11.27;;;8.40;;
40555;SDS011;26250;45.422;11.100;2023-04-19T23:05:40;9.95;;;9.05;;
40555;SDS011;26250;45.422;11.100;2023-04-19T23:08:07;9.77;;;8.65;;
40555;SDS011;26250;45.422;11.100;2023-04-19T23:10:34;9.80;;;8.88;;
40555;SDS011;26250;45.422;11.100;2023-04-19T23:13:03;10.18;;;9.27;;
40555;SDS011;26250;45.422;11.100;2023-04-19T23:15:31;9.82;;;8.90;;
40555;SDS011;26250;45.422;11.100;2023-04-19T23:17:58;9.52;;;8.60;;
40555;SDS011;26250;45.422;11.100;2023-04-19T23:20:27;13.05;;;9.73;;
40555;SDS011;26250;45.422;11.100;2023-04-19T23:22:55;9.85;;;9.02;;
40555;SDS011;26250;45.422;11.100;2023-04-19T23:25:23;9.85;;;8.95;;
40555;SDS011;26250;45.422;11.100;2023-04-19T23:27:52;11.68;;;8.05;;
40555;SDS011;26250;45.422;11.100;2023-04-19T23:30:19;10.65;;;9.60;;
40555;SDS011;26250;45.422;11.100;2023-04-19T23:32:49;11.70;;;10.25;;
40555;SDS011;26250;45.422;11.100;2023-04-19T23:35:16;10.18;;;9.13;;
40555;SDS011;26250;45.422;11.100;2023-04-19T23:37:43;11.88;;;9.55;;
40555;SDS011;26250;45.422;11.100;2023-04-19T23:40:10;9.75;;;8.95;;
40555;SDS011;26250;45.422;11.100;2023-04-19T23:42:37;8.98;;;8.10;;
40555;SDS011;26250;45.422;11.100;2023-04-19T23:45:04;10.23;;;9.05;;
40555;SDS011;26250;45.422;11.100;2023-04-19T23:47:31;10.00;;;9.00;;
40555;SDS011;26250;45.422;11.100;2023-04-19T23:49:59;11.23;;;10.00;;
40555;SDS011;26250;45.422;11.100;2023-04-19T23:52:26;11.75;;;10.73;;
40555;SDS011;26250;45.422;11.100;2023-04-19T23:54:53;12.18;;;11.00;;
40555;SDS011;26250;45.422;11.100;2023-04-19T23:57:19;12.20;;;10.27;;
40555;SDS011;26250;45.422;11.100;2023-04-19T23:59:46;14.23;;;11.30;;
